sensor_id;sensor_type;location;lat;lon;timestamp;pressure;altitude;pressure_sealevel;temperature;humidity
28008;BME280;15333;50.010;20.020;2023-03-04T00:00:04;98856.41;;;-0.67;100.00
28008;BME280;15333;50.010;20.020;2023-03-04T00:03:30;98860.81;;;-0.69;100.00
28008;BME280;15333;50.010;20.020;2023-03-04T00:06:31;98860.63;;;-0.63;100.00
28008;BME280;15333;50.010;20.020;2023-03-04T00:09:32;98855.69;;;-0.72;100.00
28008;BME280;15333;50.010;20.020;2023-03-04T00:12:33;98850.31;;;-0.69;100.00
28008;BME280;15333;50.010;20.020;2023-03-04T00:15:34;98848.50;;;-0.67;100.00
28008;BME280;15333;50.010;20.020;2023-03-04T00:18:35;98834.16;;;-0.57;100.00
28008;BME280;15333;50.010;20.020;2023-03-04T00:21:36;98834.47;;;-0.66;100.00
28008;BME280;15333;50.010;20.020;2023-03-04T00:24:37;98831.72;;;-0.63;100.00
28008;BME280;15333;50.010;20.020;2023-03-04T00:27:38;98827.69;;;-0.73;100.00
28008;BME280;15333;50.010;20.020;2023-03-04T00:30:39;98822.19;;;-0.65;100.00
28008;BME280;15333;50.010;20.020;2023-03-04T00:33:40;98811.63;;;-0.64;100.00
28008;BME280;15333;50.010;20.020;2023-03-04T00:36:43;98808.28;;;-0.69;100.00
28008;BME280;15333;50.010;20.020;2023-03-04T00:39:44;98799.69;;;-0.74;100.00
28008;BME280;15333;50.010;20.020;2023-03-04T00:42:45;98803.03;;;-0.69;100.00
28008;BME280;15333;50.010;20.020;2023-03-04T00:45:46;98794.22;;;-0.68;100.00
28008;BME280;15333;50.010;20.020;2023-03-04T00:48:48;98784.72;;;-0.72;100.00
28008;BME280;15333;50.010;20.020;2023-03-04T00:51:49;98786.44;;;-0.71;100.00
28008;BME280;15333;50.010;20.020;2023-03-04T00:54:49;98782.81;;;-0.67;100.00
28008;BME280;15333;50.010;20.020;2023-03-04T00:57:50;98774.81;;;-0.64;100.00
28008;BME280;15333;50.010;20.020;2023-03-04T01:00:51;98777.16;;;-0.55;100.00
28008;BME280;15333;50.010;20.020;2023-03-04T01:03:52;98769.19;;;-0.52;100.00
28008;BME280;15333;50.010;20.020;2023-03-04T01:06:53;98754.41;;;-0.56;100.00
28008;BME280;15333;50.010;20.020;2023-03-04T01:09:54;98739.63;;;-0.58;100.00
28008;BME280;15333;50.010;20.020;2023-03-04T01:12:55;98732.69;;;-0.61;100.00
28008;BME280;15333;50.010;20.020;2023-03-04T01:15:56;98729.16;;;-0.60;100.00
28008;BME280;15333;50.010;20.020;2023-03-04T01:18:57;98724.66;;;-0.56;100.00
28008;BME280;15333;50.010;20.020;2023-03-04T01:21:58;98720.16;;;-0.53;100.00
28008;BME280;15333;50.010;20.020;2023-03-04T01:24:59;98719.16;;;-0.49;100.00
28008;BME280;15333;50.010;20.020;2023-03-04T01:28:01;98718.53;;;-0.57;100.00
28008;BME280;15333;50.010;20.020;2023-03-04T01:31:02;98707.00;;;-0.51;100.00
28008;BME280;15333;50.010;20.020;2023-03-04T01:34:03;98700.75;;;-0.49;100.00
28008;BME280;15333;50.010;20.020;2023-03-04T01:37:04;98697.00;;;-0.42;100.00
28008;BME280;15333;50.010;20.020;2023-03-04T01:40:06;98697.00;;;-0.42;100.00
28008;BME280;15333;50.010;20.020;2023-03-04T01:43:22;98693.72;;;-0.48;100.00
28008;BME280;15333;50.010;20.020;2023-03-04T01:46:24;98685.50;;;-0.37;100.00
28008;BME280;15333;50.010;20.020;2023-03-04T01:49:25;98680.94;;;-0.32;100.00
28008;BME280;15333;50.010;20.020;2023-03-04T01:52:26;98684.63;;;-0.38;100.00
28008;BME280;15333;50.010;20.020;2023-03-04T01:55:28;98683.78;;;-0.38;100.00
28008;BME280;15333;50.010;20.020;2023-03-04T01:58:32;98685.25;;;-0.30;100.00
28008;BME280;15333;50.010;20.020;2023-03-04T02:01:33;98680.94;;;-0.32;100.00
28008;BME280;15333;50.010;20.020;2023-03-04T02:04:34;98674.25;;;-0.43;100.00
28008;BME280;15333;50.010;20.020;2023-03-04T02:07:36;98677.50;;;-0.34;100.00
28008;BME280;15333;50.010;20.020;2023-03-04T02:10:37;98674.78;;;-0.31;100.00
28008;BME280;15333;50.010;20.020;2023-03-04T02:13:39;98668.69;;;-0.33;100.00
28008;BME280;15333;50.010;20.020;2023-03-04T02:16:41;98665.81;;;-0.26;100.00
28008;BME280;15333;50.010;20.020;2023-03-04T02:23:40;98662.38;;;-0.28;100.00
28008;BME280;15333;50.010;20.020;2023-03-04T02:26:44;98663.13;;;-0.24;100.00
28008;BME280;15333;50.010;20.020;2023-03-04T02:29:47;98656.94;;;-0.22;100.00
28008;BME280;15333;50.010;20.020;2023-03-04T02:32:48;98659.81;;;-0.29;100.00
28008;BME280;15333;50.010;20.020;2023-03-04T02:35:50;98669.41;;;-0.28;100.00
28008;BME280;15333;50.010;20.020;2023-03-04T02:38:52;98656.06;;;-0.22;100.00
28008;BME280;15333;50.010;20.020;2023-03-04T02:41:55;98643.69;;;-0.20;100.00
28008;BME280;15333;50.010;20.020;2023-03-04T02:45:00;98647.25;;;-0.21;100.00
28008;BME280;15333;50.010;20.020;2023-03-04T02:48:01;98636.72;;;-0.21;100.00
28008;BME280;15333;50.010;20.020;2023-03-04T02:51:02;98632.44;;;-0.24;100.00
28008;BME280;15333;50.010;20.020;2023-03-04T02:54:21;98633.31;;;-0.23;100.00
28008;BME280;15333;50.010;20.020;2023-03-04T02:57:23;98628.03;;;-0.23;100.00
28008;BME280;15333;50.010;20.020;2023-03-04T03:00:28;98626.28;;;-0.23;100.00
28008;BME280;15333;50.010;20.020;2023-03-04T03:03:29;98619.28;;;-0.24;100.00
28008;BME280;15333;50.010;20.020;2023-03-04T03:06:30;98614.84;;;-0.22;100.00
28008;BME280;15333;50.010;20.020;2023-03-04T03:09:31;98599.13;;;-0.23;100.00
28008;BME280;15333;50.010;20.020;2023-03-04T03:12:32;98595.84;;;-0.30;100.00
28008;BME280;15333;50.010;20.020;2023-03-04T03:15:39;98603.56;;;-0.25;100.00
28008;BME280;15333;50.010;20.020;2023-03-04T03:18:42;98606.19;;;-0.25;100.00
28008;BME280;15333;50.010;20.020;2023-03-04T03:21:43;98617.63;;;-0.26;100.00
28008;BME280;15333;50.010;20.020;2023-03-04T03:24:45;98598.13;;;-0.21;100.00
28008;BME280;15333;50.010;20.020;2023-03-04T03:27:46;98588.47;;;-0.20;100.00
28008;BME280;15333;50.010;20.020;2023-03-04T03:30:47;98586.84;;;-0.23;100.00
28008;BME280;15333;50.010;20.020;2023-03-04T03:33:49;98584.03;;;-0.18;100.00
28008;BME280;15333;50.010;20.020;2023-03-04T03:36:50;98582.59;;;-0.27;100.00
28008;BME280;15333;50.010;20.020;2023-03-04T03:39:50;98587.78;;;-0.25;100.00
28008;BME280;15333;50.010;20.020;2023-03-04T03:42:51;98587.69;;;-0.22;100.00
28008;BME280;15333;50.010;20.020;2023-03-04T03:45:52;98590.25;;;-0.21;100.00
28008;BME280;15333;50.010;20.020;2023-03-04T03:48:53;98593.69;;;-0.19;100.00
28008;BME280;15333;50.010;20.020;2023-03-04T03:51:54;98584.84;;;-0.16;100.00
28008;BME280;15333;50.010;20.020;2023-03-04T03:54:55;98584.78;;;-0.15;100.00
28008;BME280;15333;50.010;20.020;2023-03-04T03:57:56;98590.88;;;-0.14;100.00
28008;BME280;15333;50.010;20.020;2023-03-04T04:00:57;98592.81;;;-0.19;100.00
28008;BME280;15333;50.010;20.020;2023-03-04T04:03:59;98592.19;;;-0.26;100.00
28008;BME280;15333;50.010;20.020;2023-03-04T04:07:00;98592.50;;;-0.35;100.00
28008;BME280;15333;50.010;20.020;2023-03-04T04:10:01;98592.59;;;-0.36;100.00
28008;BME280;15333;50.010;20.020;2023-03-04T04:13:02;98591.66;;;-0.35;100.00
28008;BME280;15333;50.010;20.020;2023-03-04T04:16:03;98583.66;;;-0.32;100.00
28008;BME280;15333;50.010;20.020;2023-03-04T04:19:04;98577.72;;;-0.37;100.00
28008;BME280;15333;50.010;20.020;2023-03-04T04:22:06;98572.69;;;-0.44;100.00
28008;BME280;15333;50.010;20.020;2023-03-04T04:25:08;98574.72;;;-0.52;100.00
28008;BME280;15333;50.010;20.020;2023-03-04T04:28:10;98575.94;;;-0.62;100.00
28008;BME280;15333;50.010;20.020;2023-03-04T04:31:11;98575.03;;;-0.61;100.00
28008;BME280;15333;50.010;20.020;2023-03-04T04:34:11;98572.69;;;-0.70;100.00
28008;BME280;15333;50.010;20.020;2023-03-04T04:37:12;98567.41;;;-0.68;100.00
28008;BME280;15333;50.010;20.020;2023-03-04T04:40:13;98580.56;;;-0.70;100.00
28008;BME280;15333;50.010;20.020;2023-03-04T04:43:14;98584.13;;;-0.71;100.00
28008;BME280;15333;50.010;20.020;2023-03-04T04:46:16;98577.34;;;-0.78;100.00
28008;BME280;15333;50.010;20.020;2023-03-04T04:49:17;98574.53;;;-0.72;100.00
28008;BME280;15333;50.010;20.020;2023-03-04T04:52:18;98571.91;;;-0.72;100.00
28008;BME280;15333;50.010;20.020;2023-03-04T04:55:19;98571.25;;;-0.78;100.00
28008;BME280;15333;50.010;20.020;2023-03-04T04:58:20;98565.28;;;-0.84;100.00
28008;BME280;15333;50.010;20.020;2023-03-04T05:01:21;98562.81;;;-0.88;100.00
28008;BME280;15333;50.010;20.020;2023-03-04T05:04:22;98560.06;;;-0.85;100.00
28008;BME280;15333;50.010;20.020;2023-03-04T05:07:23;98555.84;;;-0.89;100.00
28008;BME280;15333;50.010;20.020;2023-03-04T05:10:24;98558.56;;;-0.92;100.00
28008;BME280;15333;50.010;20.020;2023-03-04T05:13:25;98553.22;;;-0.89;100.00
28008;BME280;15333;50.010;20.020;2023-03-04T05:16:26;98556.44;;;-0.81;100.00
28008;BME280;15333;50.010;20.020;2023-03-04T05:19:28;98553.56;;;-0.73;100.00
28008;BME280;15333;50.010;20.020;2023-03-04T05:22:29;98550.06;;;-0.74;100.00
28008;BME280;15333;50.010;20.020;2023-03-04T05:25:30;98552.00;;;-0.79;100.00
28008;BME280;15333;50.010;20.020;2023-03-04T05:28:31;98554.66;;;-0.79;100.00
28008;BME280;15333;50.010;20.020;2023-03-04T05:31:32;98558.25;;;-0.83;100.00
28008;BME280;15333;50.010;20.020;2023-03-04T05:34:33;98552.34;;;-0.90;100.00
28008;BME280;15333;50.010;20.020;2023-03-04T05:37:34;98554.94;;;-0.88;100.00
28008;BME280;15333;50.010;20.020;2023-03-04T05:40:35;98554.13;;;-0.90;100.00
28008;BME280;15333;50.010;20.020;2023-03-04T05:43:36;98548.19;;;-0.95;100.00
28008;BME280;15333;50.010;20.020;2023-03-04T05:46:42;98539.66;;;-1.02;100.00
28008;BME280;15333;50.010;20.020;2023-03-04T05:49:43;98542.31;;;-1.03;100.00
28008;BME280;15333;50.010;20.020;2023-03-04T05:52:44;98535.88;;;-0.93;100.00
28008;BME280;15333;50.010;20.020;2023-03-04T05:55:46;98531.66;;;-0.99;100.00
28008;BME280;15333;50.010;20.020;2023-03-04T05:58:47;98530.69;;;-0.96;100.00
28008;BME280;15333;50.010;20.020;2023-03-04T06:01:48;98528.56;;;-0.85;100.00
28008;BME280;15333;50.010;20.020;2023-03-04T06:04:49;98544.00;;;-0.76;100.00
28008;BME280;15333;50.010;20.020;2023-03-04T06:07:50;98526.31;;;-0.71;100.00
28008;BME280;15333;50.010;20.020;2023-03-04T06:10:52;98533.06;;;-0.64;100.00
28008;BME280;15333;50.010;20.020;2023-03-04T06:13:54;98538.13;;;-0.58;100.00
28008;BME280;15333;50.010;20.020;2023-03-04T06:16:55;98539.00;;;-0.57;100.00
28008;BME280;15333;50.010;20.020;2023-03-04T06:19:56;98537.09;;;-0.54;100.00
28008;BME280;15333;50.010;20.020;2023-03-04T06:22:57;98538.00;;;-0.55;100.00
28008;BME280;15333;50.010;20.020;2023-03-04T06:25:59;98540.53;;;-0.52;100.00
28008;BME280;15333;50.010;20.020;2023-03-04T06:29:00;98542.94;;;-0.46;100.00
28008;BME280;15333;50.010;20.020;2023-03-04T06:32:01;98545.75;;;-0.50;100.00
28008;BME280;15333;50.010;20.020;2023-03-04T06:35:02;98553.16;;;-0.36;100.00
28008;BME280;15333;50.010;20.020;2023-03-04T06:38:03;98548.75;;;-0.61;100.00
28008;BME280;15333;50.010;20.020;2023-03-04T06:41:11;98558.34;;;-0.60;100.00
28008;BME280;15333;50.010;20.020;2023-03-04T06:44:12;98558.19;;;-0.55;100.00
28008;BME280;15333;50.010;20.020;2023-03-04T06:47:14;98543.91;;;-0.73;100.00
28008;BME280;15333;50.010;20.020;2023-03-04T06:50:15;98559.56;;;-0.70;100.00
28008;BME280;15333;50.010;20.020;2023-03-04T06:53:16;98547.44;;;-0.74;100.00
28008;BME280;15333;50.010;20.020;2023-03-04T06:56:17;98543.91;;;-0.73;100.00
28008;BME280;15333;50.010;20.020;2023-03-04T06:59:18;98544.63;;;-0.68;100.00
28008;BME280;15333;50.010;20.020;2023-03-04T07:02:19;98540.16;;;-0.66;100.00
28008;BME280;15333;50.010;20.020;2023-03-04T07:05:20;98530.19;;;-0.81;100.00
28008;BME280;15333;50.010;20.020;2023-03-04T07:08:21;98545.03;;;-0.80;100.00
28008;BME280;15333;50.010;20.020;2023-03-04T07:11:23;98550.16;;;-0.77;100.00
28008;BME280;15333;50.010;20.020;2023-03-04T07:14:24;98554.00;;;-0.86;100.00
28008;BME280;15333;50.010;20.020;2023-03-04T07:17:25;98551.50;;;-0.90;100.00
28008;BME280;15333;50.010;20.020;2023-03-04T07:20:26;98560.19;;;-0.88;100.00
28008;BME280;15333;50.010;20.020;2023-03-04T07:23:27;98561.78;;;-0.84;100.00
28008;BME280;15333;50.010;20.020;2023-03-04T07:26:28;98561.59;;;-0.78;100.00
28008;BME280;15333;50.010;20.020;2023-03-04T07:29:29;98563.56;;;-0.85;100.00
28008;BME280;15333;50.010;20.020;2023-03-04T07:32:30;98575.44;;;-0.73;100.00
28008;BME280;15333;50.010;20.020;2023-03-04T07:35:33;98573.16;;;-0.84;100.00
28008;BME280;15333;50.010;20.020;2023-03-04T07:38:34;98580.69;;;-0.73;100.00
28008;BME280;15333;50.010;20.020;2023-03-04T07:41:35;98580.56;;;-0.70;100.00
28008;BME280;15333;50.010;20.020;2023-03-04T07:44:37;98573.59;;;-0.71;100.00
28008;BME280;15333;50.010;20.020;2023-03-04T07:47:38;98578.56;;;-0.62;100.00
28008;BME280;15333;50.010;20.020;2023-03-04T07:50:41;98582.44;;;-0.72;100.00
28008;BME280;15333;50.010;20.020;2023-03-04T07:53:44;98586.19;;;-0.54;100.00
28008;BME280;15333;50.010;20.020;2023-03-04T07:56:45;98578.03;;;-0.71;100.00
28008;BME280;15333;50.010;20.020;2023-03-04T07:59:46;98590.56;;;-0.55;100.00
28008;BME280;15333;50.010;20.020;2023-03-04T08:02:47;98582.09;;;-0.63;100.00
28008;BME280;15333;50.010;20.020;2023-03-04T08:05:49;98580.69;;;-0.73;100.00
28008;BME280;15333;50.010;20.020;2023-03-04T08:08:55;98598.38;;;-0.78;100.00
28008;BME280;15333;50.010;20.020;2023-03-04T08:11:57;98599.56;;;-0.62;100.00
28008;BME280;15333;50.010;20.020;2023-03-04T08:14:58;98597.56;;;-0.80;100.00
28008;BME280;15333;50.010;20.020;2023-03-04T08:17:59;98596.47;;;-0.73;100.00
28008;BME280;15333;50.010;20.020;2023-03-04T08:21:00;98600.09;;;-0.77;100.00
28008;BME280;15333;50.010;20.020;2023-03-04T08:24:02;98600.81;;;-0.72;100.00
28008;BME280;15333;50.010;20.020;2023-03-04T08:27:07;98606.34;;;-0.55;100.00
28008;BME280;15333;50.010;20.020;2023-03-04T08:30:09;98600.66;;;-0.67;100.00
28008;BME280;15333;50.010;20.020;2023-03-04T08:33:10;98605.75;;;-0.63;100.00
28008;BME280;15333;50.010;20.020;2023-03-04T08:36:12;98605.91;;;-0.67;100.00
28008;BME280;15333;50.010;20.020;2023-03-04T08:39:14;98603.94;;;-0.61;100.00
28008;BME280;15333;50.010;20.020;2023-03-04T08:42:16;98607.84;;;-0.48;100.00
28008;BME280;15333;50.010;20.020;2023-03-04T08:45:17;98605.59;;;-0.33;100.00
28008;BME280;15333;50.010;20.020;2023-03-04T08:48:18;98599.06;;;-0.47;100.00
28008;BME280;15333;50.010;20.020;2023-03-04T08:51:19;98606.25;;;-0.52;100.00
28008;BME280;15333;50.010;20.020;2023-03-04T08:54:20;98592.00;;;-0.45;100.00
28008;BME280;15333;50.010;20.020;2023-03-04T08:57:21;98595.13;;;-0.35;100.00
28008;BME280;15333;50.010;20.020;2023-03-04T09:00:22;98607.31;;;-0.32;100.00
28008;BME280;15333;50.010;20.020;2023-03-04T09:03:23;98606.16;;;-0.24;99.81
28008;BME280;15333;50.010;20.020;2023-03-04T09:06:24;98609.63;;;-0.23;99.59
28008;BME280;15333;50.010;20.020;2023-03-04T09:09:25;98602.72;;;-0.26;98.50
28008;BME280;15333;50.010;20.020;2023-03-04T09:12:26;98614.28;;;-0.07;97.26
28008;BME280;15333;50.010;20.020;2023-03-04T09:15:27;98608.16;;;-0.07;97.54
28008;BME280;15333;50.010;20.020;2023-03-04T09:18:28;98604.84;;;-0.12;96.60
28008;BME280;15333;50.010;20.020;2023-03-04T09:21:29;98614.72;;;-0.19;96.09
28008;BME280;15333;50.010;20.020;2023-03-04T09:24:30;98610.50;;;0.00;97.41
28008;BME280;15333;50.010;20.020;2023-03-04T09:27:31;98610.75;;;-0.06;95.86
28008;BME280;15333;50.010;20.020;2023-03-04T09:30:33;98611.38;;;0.01;95.50
28008;BME280;15333;50.010;20.020;2023-03-04T09:33:34;98618.69;;;-0.07;96.72
28008;BME280;15333;50.010;20.020;2023-03-04T09:36:35;98602.75;;;-0.03;95.09
28008;BME280;15333;50.010;20.020;2023-03-04T09:39:36;98610.50;;;0.00;95.32
28008;BME280;15333;50.010;20.020;2023-03-04T09:42:44;98608.06;;;-0.04;95.37
28008;BME280;15333;50.010;20.020;2023-03-04T09:45:50;98605.47;;;-0.06;96.40
28008;BME280;15333;50.010;20.020;2023-03-04T09:48:54;98605.06;;;0.07;96.33
28008;BME280;15333;50.010;20.020;2023-03-04T09:55:29;98600.13;;;-0.03;96.53
28008;BME280;15333;50.010;20.020;2023-03-04T09:58:46;98602.91;;;-0.07;96.09
28008;BME280;15333;50.010;20.020;2023-03-04T10:01:53;98597.81;;;-0.12;96.13
28008;BME280;15333;50.010;20.020;2023-03-04T10:04:58;98597.50;;;-0.03;95.53
28008;BME280;15333;50.010;20.020;2023-03-04T10:08:33;98581.66;;;-0.01;95.33
28008;BME280;15333;50.010;20.020;2023-03-04T10:11:52;98583.66;;;0.16;95.37
28008;BME280;15333;50.010;20.020;2023-03-04T10:18:33;98588.81;;;0.19;95.12
28008;BME280;15333;50.010;20.020;2023-03-04T10:21:41;98578.47;;;0.14;94.26
28008;BME280;15333;50.010;20.020;2023-03-04T10:24:43;98588.06;;;0.15;93.48
28008;BME280;15333;50.010;20.020;2023-03-04T10:33:56;98568.22;;;0.07;94.06
28008;BME280;15333;50.010;20.020;2023-03-04T10:37:02;98585.94;;;0.02;94.55
28008;BME280;15333;50.010;20.020;2023-03-04T10:40:23;98572.50;;;0.09;94.16
28008;BME280;15333;50.010;20.020;2023-03-04T10:43:25;98570.44;;;0.17;93.87
28008;BME280;15333;50.010;20.020;2023-03-04T10:46:26;98567.13;;;0.12;93.73
28008;BME280;15333;50.010;20.020;2023-03-04T10:49:28;98572.44;;;0.34;93.86
28008;BME280;15333;50.010;20.020;2023-03-04T10:52:39;98562.38;;;0.22;94.40
28008;BME280;15333;50.010;20.020;2023-03-04T10:55:43;98562.03;;;0.31;94.02
28008;BME280;15333;50.010;20.020;2023-03-04T10:58:44;98565.00;;;0.22;93.23
28008;BME280;15333;50.010;20.020;2023-03-04T11:01:45;98553.50;;;0.24;94.37
28008;BME280;15333;50.010;20.020;2023-03-04T11:08:21;98546.25;;;0.31;93.22
28008;BME280;15333;50.010;20.020;2023-03-04T11:14:39;98547.06;;;0.55;93.29
28008;BME280;15333;50.010;20.020;2023-03-04T11:17:47;98550.06;;;0.46;92.37
28008;BME280;15333;50.010;20.020;2023-03-04T11:20:51;98543.44;;;0.79;91.34
28008;BME280;15333;50.010;20.020;2023-03-04T11:24:00;98541.66;;;0.58;91.69
28008;BME280;15333;50.010;20.020;2023-03-04T11:27:14;98533.06;;;0.76;91.53
28008;BME280;15333;50.010;20.020;2023-03-04T11:30:54;98535.63;;;0.56;91.75
28008;BME280;15333;50.010;20.020;2023-03-04T11:34:03;98530.47;;;0.53;92.53
28008;BME280;15333;50.010;20.020;2023-03-04T11:40:35;98519.69;;;0.59;92.18
28008;BME280;15333;50.010;20.020;2023-03-04T11:43:41;98510.38;;;0.72;92.20
28008;BME280;15333;50.010;20.020;2023-03-04T11:46:52;98501.44;;;0.76;91.30
28008;BME280;15333;50.010;20.020;2023-03-04T11:50:06;98503.28;;;0.74;91.45
28008;BME280;15333;50.010;20.020;2023-03-04T11:56:33;98492.00;;;0.92;90.71
28008;BME280;15333;50.010;20.020;2023-03-04T11:59:39;98475.78;;;1.01;89.58
28008;BME280;15333;50.010;20.020;2023-03-04T12:02:49;98480.13;;;1.23;89.46
28008;BME280;15333;50.010;20.020;2023-03-04T12:06:02;98469.75;;;1.20;89.00
28008;BME280;15333;50.010;20.020;2023-03-04T12:19:05;98475.06;;;1.38;88.26
28008;BME280;15333;50.010;20.020;2023-03-04T12:28:52;98466.84;;;1.26;89.19
28008;BME280;15333;50.010;20.020;2023-03-04T12:35:44;98469.47;;;1.26;89.22
28008;BME280;15333;50.010;20.020;2023-03-04T12:38:59;98478.25;;;1.26;89.15
28008;BME280;15333;50.010;20.020;2023-03-04T12:42:25;98479.88;;;1.29;89.99
28008;BME280;15333;50.010;20.020;2023-03-04T12:55:17;98464.06;;;1.29;90.81
28008;BME280;15333;50.010;20.020;2023-03-04T12:58:20;98458.13;;;1.44;89.63
28008;BME280;15333;50.010;20.020;2023-03-04T13:05:26;98465.09;;;1.45;90.09
28008;BME280;15333;50.010;20.020;2023-03-04T13:11:42;98457.03;;;1.68;88.50
28008;BME280;15333;50.010;20.020;2023-03-04T13:18:33;98431.69;;;1.64;88.66
28008;BME280;15333;50.010;20.020;2023-03-04T13:21:45;98441.22;;;1.68;88.32
28008;BME280;15333;50.010;20.020;2023-03-04T13:24:48;98437.78;;;1.85;88.43
28008;BME280;15333;50.010;20.020;2023-03-04T13:31:24;98420.38;;;2.00;87.17
28008;BME280;15333;50.010;20.020;2023-03-04T13:34:47;98425.84;;;2.14;86.64
28008;BME280;15333;50.010;20.020;2023-03-04T13:37:56;98421.78;;;2.07;86.24
28008;BME280;15333;50.010;20.020;2023-03-04T13:47:45;98405.03;;;2.08;85.91
28008;BME280;15333;50.010;20.020;2023-03-04T13:50:48;98416.09;;;2.16;85.61
28008;BME280;15333;50.010;20.020;2023-03-04T13:53:52;98414.25;;;2.18;86.04
28008;BME280;15333;50.010;20.020;2023-03-04T14:00:02;98408.97;;;2.18;85.59
28008;BME280;15333;50.010;20.020;2023-03-04T14:03:27;98405.03;;;2.08;85.77
28008;BME280;15333;50.010;20.020;2023-03-04T14:06:30;98413.66;;;1.92;86.23
28008;BME280;15333;50.010;20.020;2023-03-04T14:09:33;98402.69;;;2.02;85.92
28008;BME280;15333;50.010;20.020;2023-03-04T14:12:36;98401.13;;;1.98;85.81
28008;BME280;15333;50.010;20.020;2023-03-04T14:15:38;98398.84;;;2.09;86.53
28008;BME280;15333;50.010;20.020;2023-03-04T14:18:39;98399.91;;;2.05;86.22
28008;BME280;15333;50.010;20.020;2023-03-04T14:21:44;98401.34;;;2.12;86.21
28008;BME280;15333;50.010;20.020;2023-03-04T14:25:04;98394.94;;;1.99;87.08
28008;BME280;15333;50.010;20.020;2023-03-04T14:28:20;98394.84;;;2.00;87.01
28008;BME280;15333;50.010;20.020;2023-03-04T14:31:23;98388.81;;;1.98;87.28
28008;BME280;15333;50.010;20.020;2023-03-04T14:34:31;98393.00;;;2.02;87.34
28008;BME280;15333;50.010;20.020;2023-03-04T14:37:46;98403.78;;;1.98;87.98
28008;BME280;15333;50.010;20.020;2023-03-04T14:40:51;98401.13;;;1.98;87.90
28008;BME280;15333;50.010;20.020;2023-03-04T14:44:04;98410.09;;;1.93;88.74
28008;BME280;15333;50.010;20.020;2023-03-04T14:47:16;98413.53;;;1.95;88.65
28008;BME280;15333;50.010;20.020;2023-03-04T14:50:20;98408.56;;;1.89;89.04
28008;BME280;15333;50.010;20.020;2023-03-04T14:53:24;98408.25;;;1.95;89.15
28008;BME280;15333;50.010;20.020;2023-03-04T14:56:27;98399.56;;;1.93;88.96
28008;BME280;15333;50.010;20.020;2023-03-04T14:59:34;98392.13;;;2.02;88.80
28008;BME280;15333;50.010;20.020;2023-03-04T15:02:37;98394.78;;;2.02;88.91
28008;BME280;15333;50.010;20.020;2023-03-04T15:05:39;98387.94;;;1.98;87.86
28008;BME280;15333;50.010;20.020;2023-03-04T15:08:40;98393.41;;;2.12;87.77
28008;BME280;15333;50.010;20.020;2023-03-04T15:11:49;98392.13;;;2.02;87.51
28008;BME280;15333;50.010;20.020;2023-03-04T15:14:56;98381.28;;;2.08;86.80
28008;BME280;15333;50.010;20.020;2023-03-04T15:18:22;98380.13;;;2.13;87.16
28008;BME280;15333;50.010;20.020;2023-03-04T15:24:21;98386.25;;;2.14;86.30
28008;BME280;15333;50.010;20.020;2023-03-04T15:27:24;98380.06;;;2.15;85.74
28008;BME280;15333;50.010;20.020;2023-03-04T15:30:28;98383.72;;;2.12;85.28
28008;BME280;15333;50.010;20.020;2023-03-04T15:33:29;98376.19;;;2.22;84.78
28008;BME280;15333;50.010;20.020;2023-03-04T15:36:30;98384.28;;;2.19;85.00
28008;BME280;15333;50.010;20.020;2023-03-04T15:39:31;98383.13;;;2.24;84.38
28008;BME280;15333;50.010;20.020;2023-03-04T15:42:32;98385.69;;;2.26;83.43
28008;BME280;15333;50.010;20.020;2023-03-04T15:45:35;98388.94;;;2.31;83.42
28008;BME280;15333;50.010;20.020;2023-03-04T15:48:38;98389.81;;;2.31;83.10
28008;BME280;15333;50.010;20.020;2023-03-04T15:51:38;98384.66;;;2.28;82.80
28008;BME280;15333;50.010;20.020;2023-03-04T15:54:40;98387.84;;;2.35;82.70
28008;BME280;15333;50.010;20.020;2023-03-04T15:57:41;98374.53;;;2.38;81.73
28008;BME280;15333;50.010;20.020;2023-03-04T16:00:42;98377.78;;;2.43;81.20
28008;BME280;15333;50.010;20.020;2023-03-04T16:03:46;98382.19;;;2.43;81.16
28008;BME280;15333;50.010;20.020;2023-03-04T16:06:47;98393.63;;;2.43;81.17
28008;BME280;15333;50.010;20.020;2023-03-04T16:09:55;98386.50;;;2.45;81.25
28008;BME280;15333;50.010;20.020;2023-03-04T16:12:57;98390.91;;;2.45;80.75
28008;BME280;15333;50.010;20.020;2023-03-04T16:15:58;98378.69;;;2.42;80.93
28008;BME280;15333;50.010;20.020;2023-03-04T16:18:59;98376.72;;;2.47;80.60
28008;BME280;15333;50.010;20.020;2023-03-04T16:22:01;98357.31;;;2.48;80.60
28008;BME280;15333;50.010;20.020;2023-03-04T16:25:03;98372.19;;;2.49;80.84
28008;BME280;15333;50.010;20.020;2023-03-04T16:28:04;98372.28;;;2.48;80.89
28008;BME280;15333;50.010;20.020;2023-03-04T16:31:06;98367.94;;;2.47;80.70
28008;BME280;15333;50.010;20.020;2023-03-04T16:34:09;98371.75;;;2.58;80.49
28008;BME280;15333;50.010;20.020;2023-03-04T16:37:15;98366.75;;;2.52;80.37
28008;BME280;15333;50.010;20.020;2023-03-04T16:40:20;98379.03;;;2.53;80.23
28008;BME280;15333;50.010;20.020;2023-03-04T16:43:23;98381.63;;;2.55;80.40
28008;BME280;15333;50.010;20.020;2023-03-04T16:46:24;98373.75;;;2.53;80.43
28008;BME280;15333;50.010;20.020;2023-03-04T16:49:25;98372.91;;;2.53;80.15
28008;BME280;15333;50.010;20.020;2023-03-04T16:52:30;98386.03;;;2.54;80.13
28008;BME280;15333;50.010;20.020;2023-03-04T16:55:32;98390.16;;;2.60;79.92
28008;BME280;15333;50.010;20.020;2023-03-04T16:58:32;98384.16;;;2.56;79.97
28008;BME280;15333;50.010;20.020;2023-03-04T17:01:34;98384.31;;;2.53;80.05
28008;BME280;15333;50.010;20.020;2023-03-04T17:04:36;98385.31;;;2.51;80.18
28008;BME280;15333;50.010;20.020;2023-03-04T17:07:37;98402.94;;;2.50;80.07
28008;BME280;15333;50.010;20.020;2023-03-04T17:10:38;98389.91;;;2.47;80.28
28008;BME280;15333;50.010;20.020;2023-03-04T17:13:39;98391.63;;;2.48;79.76
28008;BME280;15333;50.010;20.020;2023-03-04T17:16:40;98390.59;;;2.51;79.99
28008;BME280;15333;50.010;20.020;2023-03-04T17:19:43;98389.75;;;2.50;79.84
28008;BME280;15333;50.010;20.020;2023-03-04T17:22:44;98404.06;;;2.46;80.23